<?xml version="1.0" encoding="UTF-8" standalone="no" ?>
<gpx xmlns="http://www.topografix.com/GPX/1/1" xmlns:xsi="http://www.w3.org/2001/XMLSchema-instance" xsi:schemaLocation="http://www.topografix.com/GPX/1/1 http://www.topografix.com/GPX/1/1/gpx.xsd" version="1.1" creator="VisuGPX - https://www.visugpx.com">
  <metadata>
    <name>Balade en famille au lac KIR</name>
    <desc><![CDATA[                                                                                      ]]></desc>
  </metadata>
  <trk>
    <name><![CDATA[20170924002624-nxJG6]]></name>
    <trkseg>
      <trkpt lat="47.32428" lon="5.00795">
        <ele>243.8</ele>
        <time>2017-09-23T14:14:52Z</time>
      </trkpt>
      <trkpt lat="47.32428" lon="5.00795">
        <ele>243.8</ele>
        <time>2017-09-23T14:14:52Z</time>
      </trkpt>
      <trkpt lat="47.32427" lon="5.00788">
        <ele>243.6</ele>
        <time>2017-09-23T14:15:03Z</time>
      </trkpt>
      <trkpt lat="47.32425" lon="5.0078">
        <ele>243.4</ele>
        <time>2017-09-23T14:15:14Z</time>
      </trkpt>
      <trkpt lat="47.3242" lon="5.00768">
        <ele>242.8</ele>
        <time>2017-09-23T14:15:25Z</time>
      </trkpt>
      <trkpt lat="47.32422" lon="5.00763">
        <ele>242.8</ele>
        <time>2017-09-23T14:15:36Z</time>
      </trkpt>
      <trkpt lat="47.32418" lon="5.00758">
        <ele>242.4</ele>
        <time>2017-09-23T14:15:47Z</time>
      </trkpt>
      <trkpt lat="47.32417" lon="5.00748">
        <ele>241.9</ele>
        <time>2017-09-23T14:15:58Z</time>
      </trkpt>
      <trkpt lat="47.32417" lon="5.00735">
        <ele>240.9</ele>
        <time>2017-09-23T14:16:09Z</time>
      </trkpt>
      <trkpt lat="47.32413" lon="5.00728">
        <ele>240.3</ele>
        <time>2017-09-23T14:16:20Z</time>
      </trkpt>
      <trkpt lat="47.3241" lon="5.00712">
        <ele>241</ele>
        <time>2017-09-23T14:16:31Z</time>
      </trkpt>
      <trkpt lat="47.32407" lon="5.00703">
        <ele>241.9</ele>
        <time>2017-09-23T14:16:42Z</time>
      </trkpt>
      <trkpt lat="47.32402" lon="5.00693">
        <ele>243</ele>
        <time>2017-09-23T14:16:53Z</time>
      </trkpt>
      <trkpt lat="47.32398" lon="5.00683">
        <ele>243.1</ele>
        <time>2017-09-23T14:17:04Z</time>
      </trkpt>
      <trkpt lat="47.32393" lon="5.00668">
        <ele>243.6</ele>
        <time>2017-09-23T14:17:15Z</time>
      </trkpt>
      <trkpt lat="47.32392" lon="5.00658">
        <ele>243.5</ele>
        <time>2017-09-23T14:17:26Z</time>
      </trkpt>
      <trkpt lat="47.32387" lon="5.00645">
        <ele>243.3</ele>
        <time>2017-09-23T14:17:37Z</time>
      </trkpt>
      <trkpt lat="47.32383" lon="5.00623">
        <ele>243.3</ele>
        <time>2017-09-23T14:17:48Z</time>
      </trkpt>
      <trkpt lat="47.32378" lon="5.00595">
        <ele>243.4</ele>
        <time>2017-09-23T14:17:59Z</time>
      </trkpt>
      <trkpt lat="47.32377" lon="5.00585">
        <ele>243.4</ele>
        <time>2017-09-23T14:18:10Z</time>
      </trkpt>
      <trkpt lat="47.32377" lon="5.0057">
        <ele>243.3</ele>
        <time>2017-09-23T14:18:21Z</time>
      </trkpt>
      <trkpt lat="47.3238" lon="5.0055">
        <ele>243</ele>
        <time>2017-09-23T14:18:32Z</time>
      </trkpt>
      <trkpt lat="47.3238" lon="5.00533">
        <ele>243</ele>
        <time>2017-09-23T14:18:43Z</time>
      </trkpt>
      <trkpt lat="47.32382" lon="5.00517">
        <ele>243.2</ele>
        <time>2017-09-23T14:18:54Z</time>
      </trkpt>
      <trkpt lat="47.3239" lon="5.00498">
        <ele>243.1</ele>
        <time>2017-09-23T14:19:05Z</time>
      </trkpt>
      <trkpt lat="47.32393" lon="5.00483">
        <ele>243.9</ele>
        <time>2017-09-23T14:19:16Z</time>
      </trkpt>
      <trkpt lat="47.324" lon="5.00465">
        <ele>244.2</ele>
        <time>2017-09-23T14:19:27Z</time>
      </trkpt>
      <trkpt lat="47.32408" lon="5.00438">
        <ele>244.8</ele>
        <time>2017-09-23T14:19:38Z</time>
      </trkpt>
      <trkpt lat="47.32412" lon="5.00433">
        <ele>244.7</ele>
        <time>2017-09-23T14:19:49Z</time>
      </trkpt>
      <trkpt lat="47.32418" lon="5.00417">
        <ele>244.9</ele>
        <time>2017-09-23T14:20:00Z</time>
      </trkpt>
      <trkpt lat="47.3242" lon="5.00408">
        <ele>244.8</ele>
        <time>2017-09-23T14:20:11Z</time>
      </trkpt>
      <trkpt lat="47.32428" lon="5.004">
        <ele>244.4</ele>
        <time>2017-09-23T14:20:22Z</time>
      </trkpt>
      <trkpt lat="47.3243" lon="5.00395">
        <ele>244.4</ele>
        <time>2017-09-23T14:20:33Z</time>
      </trkpt>
      <trkpt lat="47.32435" lon="5.00382">
        <ele>244.6</ele>
        <time>2017-09-23T14:20:44Z</time>
      </trkpt>
      <trkpt lat="47.3244" lon="5.00377">
        <ele>244.6</ele>
        <time>2017-09-23T14:20:55Z</time>
      </trkpt>
      <trkpt lat="47.32447" lon="5.00363">
        <ele>244.8</ele>
        <time>2017-09-23T14:21:06Z</time>
      </trkpt>
      <trkpt lat="47.32455" lon="5.00343">
        <ele>245.1</ele>
        <time>2017-09-23T14:21:17Z</time>
      </trkpt>
      <trkpt lat="47.32457" lon="5.0034">
        <ele>245.2</ele>
        <time>2017-09-23T14:21:28Z</time>
      </trkpt>
      <trkpt lat="47.3247" lon="5.00322">
        <ele>245.1</ele>
        <time>2017-09-23T14:21:39Z</time>
      </trkpt>
      <trkpt lat="47.32482" lon="5.00308">
        <ele>244.6</ele>
        <time>2017-09-23T14:21:50Z</time>
      </trkpt>
      <trkpt lat="47.32488" lon="5.00298">
        <ele>244.4</ele>
        <time>2017-09-23T14:22:01Z</time>
      </trkpt>
      <trkpt lat="47.32488" lon="5.00292">
        <ele>244.4</ele>
        <time>2017-09-23T14:22:12Z</time>
      </trkpt>
      <trkpt lat="47.32488" lon="5.00285">
        <ele>244.4</ele>
        <time>2017-09-23T14:22:23Z</time>
      </trkpt>
      <trkpt lat="47.32487" lon="5.0027">
        <ele>244.6</ele>
        <time>2017-09-23T14:22:34Z</time>
      </trkpt>
      <trkpt lat="47.3249" lon="5.00258">
        <ele>244.4</ele>
        <time>2017-09-23T14:22:45Z</time>
      </trkpt>
      <trkpt lat="47.32497" lon="5.0025">
        <ele>243.5</ele>
        <time>2017-09-23T14:22:56Z</time>
      </trkpt>
      <trkpt lat="47.32503" lon="5.00248">
        <ele>243.2</ele>
        <time>2017-09-23T14:23:07Z</time>
      </trkpt>
      <trkpt lat="47.32513" lon="5.00245">
        <ele>243.4</ele>
        <time>2017-09-23T14:23:18Z</time>
      </trkpt>
      <trkpt lat="47.32518" lon="5.00243">
        <ele>243.4</ele>
        <time>2017-09-23T14:23:29Z</time>
      </trkpt>
      <trkpt lat="47.3253" lon="5.00235">
        <ele>243.5</ele>
        <time>2017-09-23T14:23:40Z</time>
      </trkpt>
      <trkpt lat="47.32543" lon="5.00227">
        <ele>243.8</ele>
        <time>2017-09-23T14:23:51Z</time>
      </trkpt>
      <trkpt lat="47.32555" lon="5.00217">
        <ele>244.2</ele>
        <time>2017-09-23T14:24:02Z</time>
      </trkpt>
      <trkpt lat="47.32562" lon="5.00207">
        <ele>244.2</ele>
        <time>2017-09-23T14:24:13Z</time>
      </trkpt>
      <trkpt lat="47.32568" lon="5.00197">
        <ele>244</ele>
        <time>2017-09-23T14:24:24Z</time>
      </trkpt>
      <trkpt lat="47.32577" lon="5.0018">
        <ele>243.9</ele>
        <time>2017-09-23T14:24:35Z</time>
      </trkpt>
      <trkpt lat="47.32577" lon="5.00175">
        <ele>244</ele>
        <time>2017-09-23T14:24:46Z</time>
      </trkpt>
      <trkpt lat="47.32582" lon="5.00167">
        <ele>244.1</ele>
        <time>2017-09-23T14:24:57Z</time>
      </trkpt>
      <trkpt lat="47.32583" lon="5.00155">
        <ele>244.4</ele>
        <time>2017-09-23T14:25:08Z</time>
      </trkpt>
      <trkpt lat="47.32582" lon="5.00133">
        <ele>245.1</ele>
        <time>2017-09-23T14:25:19Z</time>
      </trkpt>
      <trkpt lat="47.32582" lon="5.00112">
        <ele>245.1</ele>
        <time>2017-09-23T14:25:30Z</time>
      </trkpt>
      <trkpt lat="47.32587" lon="5.00097">
        <ele>245.3</ele>
        <time>2017-09-23T14:25:41Z</time>
      </trkpt>
      <trkpt lat="47.32592" lon="5.0009">
        <ele>245.2</ele>
        <time>2017-09-23T14:25:52Z</time>
      </trkpt>
      <trkpt lat="47.32593" lon="5.00085">
        <ele>245.2</ele>
        <time>2017-09-23T14:26:14Z</time>
      </trkpt>
      <trkpt lat="47.32593" lon="5.00085">
        <ele>245.2</ele>
        <time>2017-09-23T14:26:14Z</time>
      </trkpt>
      <trkpt lat="47.32598" lon="5.00068">
        <ele>244.9</ele>
        <time>2017-09-23T14:26:25Z</time>
      </trkpt>
      <trkpt lat="47.32603" lon="5.00063">
        <ele>244.6</ele>
        <time>2017-09-23T14:26:36Z</time>
      </trkpt>
      <trkpt lat="47.32605" lon="5.0005">
        <ele>244.4</ele>
        <time>2017-09-23T14:26:47Z</time>
      </trkpt>
      <trkpt lat="47.32603" lon="5.00032">
        <ele>244.3</ele>
        <time>2017-09-23T14:26:58Z</time>
      </trkpt>
      <trkpt lat="47.32607" lon="5.00015">
        <ele>244.6</ele>
        <time>2017-09-23T14:27:09Z</time>
      </trkpt>
      <trkpt lat="47.32608" lon="5.00002">
        <ele>245</ele>
        <time>2017-09-23T14:27:20Z</time>
      </trkpt>
      <trkpt lat="47.32612" lon="4.99993">
        <ele>244.9</ele>
        <time>2017-09-23T14:27:31Z</time>
      </trkpt>
      <trkpt lat="47.32613" lon="4.99985">
        <ele>244.8</ele>
        <time>2017-09-23T14:27:42Z</time>
      </trkpt>
      <trkpt lat="47.3261" lon="4.99968">
        <ele>245</ele>
        <time>2017-09-23T14:27:53Z</time>
      </trkpt>
      <trkpt lat="47.3261" lon="4.99937">
        <ele>245</ele>
        <time>2017-09-23T14:28:04Z</time>
      </trkpt>
      <trkpt lat="47.32612" lon="4.99928">
        <ele>244.9</ele>
        <time>2017-09-23T14:28:15Z</time>
      </trkpt>
      <trkpt lat="47.32615" lon="4.99918">
        <ele>244.6</ele>
        <time>2017-09-23T14:28:26Z</time>
      </trkpt>
      <trkpt lat="47.32617" lon="4.99913">
        <ele>244.4</ele>
        <time>2017-09-23T14:28:37Z</time>
      </trkpt>
      <trkpt lat="47.32617" lon="4.99893">
        <ele>244.6</ele>
        <time>2017-09-23T14:28:48Z</time>
      </trkpt>
      <trkpt lat="47.32617" lon="4.99877">
        <ele>244.6</ele>
        <time>2017-09-23T14:28:59Z</time>
      </trkpt>
      <trkpt lat="47.32617" lon="4.99858">
        <ele>244.6</ele>
        <time>2017-09-23T14:29:10Z</time>
      </trkpt>
      <trkpt lat="47.32618" lon="4.99847">
        <ele>244.5</ele>
        <time>2017-09-23T14:29:21Z</time>
      </trkpt>
      <trkpt lat="47.32617" lon="4.9983">
        <ele>244.6</ele>
        <time>2017-09-23T14:29:32Z</time>
      </trkpt>
      <trkpt lat="47.32617" lon="4.99817">
        <ele>244.6</ele>
        <time>2017-09-23T14:29:43Z</time>
      </trkpt>
      <trkpt lat="47.3262" lon="4.99798">
        <ele>244.4</ele>
        <time>2017-09-23T14:29:54Z</time>
      </trkpt>
      <trkpt lat="47.32623" lon="4.99783">
        <ele>244.1</ele>
        <time>2017-09-23T14:30:05Z</time>
      </trkpt>
      <trkpt lat="47.32623" lon="4.99772">
        <ele>244.1</ele>
        <time>2017-09-23T14:30:16Z</time>
      </trkpt>
      <trkpt lat="47.32627" lon="4.99755">
        <ele>243.9</ele>
        <time>2017-09-23T14:30:27Z</time>
      </trkpt>
      <trkpt lat="47.32628" lon="4.99745">
        <ele>244</ele>
        <time>2017-09-23T14:30:38Z</time>
      </trkpt>
      <trkpt lat="47.32627" lon="4.99742">
        <ele>244.2</ele>
        <time>2017-09-23T14:30:49Z</time>
      </trkpt>
      <trkpt lat="47.32623" lon="4.99733">
        <ele>244.7</ele>
        <time>2017-09-23T14:31:00Z</time>
      </trkpt>
      <trkpt lat="47.32617" lon="4.9972">
        <ele>245.1</ele>
        <time>2017-09-23T14:31:11Z</time>
      </trkpt>
      <trkpt lat="47.32617" lon="4.99712">
        <ele>245.5</ele>
        <time>2017-09-23T14:31:22Z</time>
      </trkpt>
      <trkpt lat="47.32613" lon="4.99693">
        <ele>246.1</ele>
        <time>2017-09-23T14:31:33Z</time>
      </trkpt>
      <trkpt lat="47.32613" lon="4.99688">
        <ele>246.1</ele>
        <time>2017-09-23T14:31:44Z</time>
      </trkpt>
      <trkpt lat="47.32612" lon="4.99677">
        <ele>246</ele>
        <time>2017-09-23T14:31:55Z</time>
      </trkpt>
      <trkpt lat="47.32612" lon="4.99667">
        <ele>246</ele>
        <time>2017-09-23T14:32:06Z</time>
      </trkpt>
      <trkpt lat="47.32622" lon="4.9965">
        <ele>245.4</ele>
        <time>2017-09-23T14:32:17Z</time>
      </trkpt>
      <trkpt lat="47.32625" lon="4.99642">
        <ele>245.1</ele>
        <time>2017-09-23T14:32:28Z</time>
      </trkpt>
      <trkpt lat="47.32628" lon="4.99632">
        <ele>245</ele>
        <time>2017-09-23T14:32:39Z</time>
      </trkpt>
      <trkpt lat="47.32637" lon="4.99612">
        <ele>245</ele>
        <time>2017-09-23T14:32:50Z</time>
      </trkpt>
      <trkpt lat="47.32643" lon="4.99598">
        <ele>244.8</ele>
        <time>2017-09-23T14:33:01Z</time>
      </trkpt>
      <trkpt lat="47.32645" lon="4.99578">
        <ele>244.7</ele>
        <time>2017-09-23T14:33:12Z</time>
      </trkpt>
      <trkpt lat="47.32648" lon="4.99568">
        <ele>244.5</ele>
        <time>2017-09-23T14:33:23Z</time>
      </trkpt>
      <trkpt lat="47.32653" lon="4.99563">
        <ele>244.5</ele>
        <time>2017-09-23T14:33:34Z</time>
      </trkpt>
      <trkpt lat="47.32655" lon="4.99563">
        <ele>244.5</ele>
        <time>2017-09-23T14:33:45Z</time>
      </trkpt>
      <trkpt lat="47.32663" lon="4.99553">
        <ele>245</ele>
        <time>2017-09-23T14:33:56Z</time>
      </trkpt>
      <trkpt lat="47.3267" lon="4.99537">
        <ele>245.3</ele>
        <time>2017-09-23T14:34:07Z</time>
      </trkpt>
      <trkpt lat="47.32678" lon="4.99518">
        <ele>244.7</ele>
        <time>2017-09-23T14:34:18Z</time>
      </trkpt>
      <trkpt lat="47.32687" lon="4.99505">
        <ele>244.2</ele>
        <time>2017-09-23T14:34:29Z</time>
      </trkpt>
      <trkpt lat="47.32693" lon="4.99492">
        <ele>244.3</ele>
        <time>2017-09-23T14:34:40Z</time>
      </trkpt>
      <trkpt lat="47.32697" lon="4.99477">
        <ele>244.6</ele>
        <time>2017-09-23T14:34:51Z</time>
      </trkpt>
      <trkpt lat="47.327" lon="4.99458">
        <ele>244.9</ele>
        <time>2017-09-23T14:35:02Z</time>
      </trkpt>
      <trkpt lat="47.32705" lon="4.9945">
        <ele>244.7</ele>
        <time>2017-09-23T14:35:13Z</time>
      </trkpt>
      <trkpt lat="47.32707" lon="4.99442">
        <ele>244.7</ele>
        <time>2017-09-23T14:35:24Z</time>
      </trkpt>
      <trkpt lat="47.3271" lon="4.99428">
        <ele>244.6</ele>
        <time>2017-09-23T14:35:35Z</time>
      </trkpt>
      <trkpt lat="47.32712" lon="4.99418">
        <ele>244.7</ele>
        <time>2017-09-23T14:35:46Z</time>
      </trkpt>
      <trkpt lat="47.3271" lon="4.9941">
        <ele>245</ele>
        <time>2017-09-23T14:35:57Z</time>
      </trkpt>
      <trkpt lat="47.32713" lon="4.99395">
        <ele>245.2</ele>
        <time>2017-09-23T14:36:08Z</time>
      </trkpt>
      <trkpt lat="47.32713" lon="4.99393">
        <ele>245.2</ele>
        <time>2017-09-23T14:36:19Z</time>
      </trkpt>
      <trkpt lat="47.32712" lon="4.99382">
        <ele>245.5</ele>
        <time>2017-09-23T14:36:30Z</time>
      </trkpt>
      <trkpt lat="47.32712" lon="4.99375">
        <ele>245.7</ele>
        <time>2017-09-23T14:36:41Z</time>
      </trkpt>
      <trkpt lat="47.32708" lon="4.99372">
        <ele>245.8</ele>
        <time>2017-09-23T14:36:52Z</time>
      </trkpt>
      <trkpt lat="47.32708" lon="4.99365">
        <ele>245.9</ele>
        <time>2017-09-23T14:37:03Z</time>
      </trkpt>
      <trkpt lat="47.32708" lon="4.9936">
        <ele>246</ele>
        <time>2017-09-23T14:37:14Z</time>
      </trkpt>
      <trkpt lat="47.32708" lon="4.99358">
        <ele>246</ele>
        <time>2017-09-23T14:37:25Z</time>
      </trkpt>
      <trkpt lat="47.32713" lon="4.99345">
        <ele>246</ele>
        <time>2017-09-23T14:37:36Z</time>
      </trkpt>
      <trkpt lat="47.32713" lon="4.9934">
        <ele>246</ele>
        <time>2017-09-23T14:37:47Z</time>
      </trkpt>
      <trkpt lat="47.32715" lon="4.99337">
        <ele>246</ele>
        <time>2017-09-23T14:37:58Z</time>
      </trkpt>
      <trkpt lat="47.32718" lon="4.99322">
        <ele>245.9</ele>
        <time>2017-09-23T14:38:09Z</time>
      </trkpt>
      <trkpt lat="47.32718" lon="4.9932">
        <ele>245.9</ele>
        <time>2017-09-23T14:38:20Z</time>
      </trkpt>
      <trkpt lat="47.32718" lon="4.99308">
        <ele>245.9</ele>
        <time>2017-09-23T14:38:42Z</time>
      </trkpt>
      <trkpt lat="47.32718" lon="4.99308">
        <ele>245.9</ele>
        <time>2017-09-23T14:38:42Z</time>
      </trkpt>
      <trkpt lat="47.32718" lon="4.99307">
        <ele>245.9</ele>
        <time>2017-09-23T14:38:53Z</time>
      </trkpt>
      <trkpt lat="47.32718" lon="4.99305">
        <ele>245.9</ele>
        <time>2017-09-23T14:39:04Z</time>
      </trkpt>
      <trkpt lat="47.32718" lon="4.993">
        <ele>245.9</ele>
        <time>2017-09-23T14:39:15Z</time>
      </trkpt>
      <trkpt lat="47.32718" lon="4.99297">
        <ele>245.9</ele>
        <time>2017-09-23T14:39:26Z</time>
      </trkpt>
      <trkpt lat="47.32718" lon="4.99287">
        <ele>245.9</ele>
        <time>2017-09-23T14:39:37Z</time>
      </trkpt>
      <trkpt lat="47.32718" lon="4.99272">
        <ele>245.9</ele>
        <time>2017-09-23T14:39:48Z</time>
      </trkpt>
      <trkpt lat="47.32718" lon="4.99263">
        <ele>245.9</ele>
        <time>2017-09-23T14:39:59Z</time>
      </trkpt>
      <trkpt lat="47.3272" lon="4.99247">
        <ele>245.9</ele>
        <time>2017-09-23T14:40:10Z</time>
      </trkpt>
      <trkpt lat="47.3272" lon="4.99237">
        <ele>245.9</ele>
        <time>2017-09-23T14:40:21Z</time>
      </trkpt>
      <trkpt lat="47.32723" lon="4.99213">
        <ele>246</ele>
        <time>2017-09-23T14:40:32Z</time>
      </trkpt>
      <trkpt lat="47.32723" lon="4.99198">
        <ele>246</ele>
        <time>2017-09-23T14:40:43Z</time>
      </trkpt>
      <trkpt lat="47.32727" lon="4.99178">
        <ele>246</ele>
        <time>2017-09-23T14:40:54Z</time>
      </trkpt>
      <trkpt lat="47.3273" lon="4.99163">
        <ele>246</ele>
        <time>2017-09-23T14:41:05Z</time>
      </trkpt>
      <trkpt lat="47.32732" lon="4.99153">
        <ele>246</ele>
        <time>2017-09-23T14:41:16Z</time>
      </trkpt>
      <trkpt lat="47.32733" lon="4.9914">
        <ele>246</ele>
        <time>2017-09-23T14:41:27Z</time>
      </trkpt>
      <trkpt lat="47.32735" lon="4.9913">
        <ele>246.1</ele>
        <time>2017-09-23T14:41:38Z</time>
      </trkpt>
      <trkpt lat="47.32735" lon="4.99127">
        <ele>246.2</ele>
        <time>2017-09-23T14:41:49Z</time>
      </trkpt>
      <trkpt lat="47.32737" lon="4.99123">
        <ele>246.3</ele>
        <time>2017-09-23T14:42:00Z</time>
      </trkpt>
      <trkpt lat="47.32737" lon="4.99122">
        <ele>246.3</ele>
        <time>2017-09-23T14:42:11Z</time>
      </trkpt>
      <trkpt lat="47.32737" lon="4.99113">
        <ele>246.5</ele>
        <time>2017-09-23T14:42:22Z</time>
      </trkpt>
      <trkpt lat="47.32738" lon="4.99103">
        <ele>246.5</ele>
        <time>2017-09-23T14:42:33Z</time>
      </trkpt>
      <trkpt lat="47.32738" lon="4.99102">
        <ele>246.4</ele>
        <time>2017-09-23T14:42:44Z</time>
      </trkpt>
      <trkpt lat="47.3274" lon="4.99095">
        <ele>246.4</ele>
        <time>2017-09-23T14:42:55Z</time>
      </trkpt>
      <trkpt lat="47.3274" lon="4.9909">
        <ele>246.4</ele>
        <time>2017-09-23T14:43:06Z</time>
      </trkpt>
      <trkpt lat="47.32742" lon="4.99083">
        <ele>246.4</ele>
        <time>2017-09-23T14:43:17Z</time>
      </trkpt>
      <trkpt lat="47.32745" lon="4.99068">
        <ele>246.7</ele>
        <time>2017-09-23T14:43:28Z</time>
      </trkpt>
      <trkpt lat="47.32745" lon="4.99067">
        <ele>246.7</ele>
        <time>2017-09-23T14:43:39Z</time>
      </trkpt>
      <trkpt lat="47.32748" lon="4.99053">
        <ele>246.9</ele>
        <time>2017-09-23T14:43:50Z</time>
      </trkpt>
      <trkpt lat="47.3275" lon="4.99048">
        <ele>247</ele>
        <time>2017-09-23T14:44:01Z</time>
      </trkpt>
      <trkpt lat="47.32752" lon="4.99043">
        <ele>247</ele>
        <time>2017-09-23T14:44:23Z</time>
      </trkpt>
      <trkpt lat="47.32752" lon="4.99043">
        <ele>247</ele>
        <time>2017-09-23T14:44:23Z</time>
      </trkpt>
      <trkpt lat="47.32753" lon="4.99028">
        <ele>247</ele>
        <time>2017-09-23T14:44:34Z</time>
      </trkpt>
      <trkpt lat="47.32755" lon="4.99027">
        <ele>247</ele>
        <time>2017-09-23T14:44:45Z</time>
      </trkpt>
      <trkpt lat="47.32757" lon="4.99018">
        <ele>247</ele>
        <time>2017-09-23T14:44:56Z</time>
      </trkpt>
      <trkpt lat="47.32757" lon="4.99017">
        <ele>247</ele>
        <time>2017-09-23T14:45:18Z</time>
      </trkpt>
      <trkpt lat="47.32757" lon="4.99017">
        <ele>247</ele>
        <time>2017-09-23T14:45:18Z</time>
      </trkpt>
      <trkpt lat="47.32758" lon="4.99007">
        <ele>247</ele>
        <time>2017-09-23T14:45:29Z</time>
      </trkpt>
      <trkpt lat="47.32762" lon="4.98993">
        <ele>246.9</ele>
        <time>2017-09-23T14:45:40Z</time>
      </trkpt>
      <trkpt lat="47.32763" lon="4.98992">
        <ele>246.8</ele>
        <time>2017-09-23T14:45:51Z</time>
      </trkpt>
      <trkpt lat="47.3277" lon="4.98982">
        <ele>246.8</ele>
        <time>2017-09-23T14:46:02Z</time>
      </trkpt>
      <trkpt lat="47.3278" lon="4.98953">
        <ele>246.7</ele>
        <time>2017-09-23T14:46:13Z</time>
      </trkpt>
      <trkpt lat="47.32788" lon="4.98935">
        <ele>245.4</ele>
        <time>2017-09-23T14:46:24Z</time>
      </trkpt>
      <trkpt lat="47.32798" lon="4.9892">
        <ele>243.4</ele>
        <time>2017-09-23T14:46:35Z</time>
      </trkpt>
      <trkpt lat="47.32803" lon="4.98903">
        <ele>242.3</ele>
        <time>2017-09-23T14:46:46Z</time>
      </trkpt>
      <trkpt lat="47.32813" lon="4.9889">
        <ele>242.5</ele>
        <time>2017-09-23T14:46:57Z</time>
      </trkpt>
      <trkpt lat="47.32818" lon="4.98878">
        <ele>244.1</ele>
        <time>2017-09-23T14:47:08Z</time>
      </trkpt>
      <trkpt lat="47.32828" lon="4.98858">
        <ele>246.7</ele>
        <time>2017-09-23T14:47:19Z</time>
      </trkpt>
      <trkpt lat="47.32833" lon="4.9885">
        <ele>247</ele>
        <time>2017-09-23T14:47:30Z</time>
      </trkpt>
      <trkpt lat="47.32838" lon="4.9884">
        <ele>247</ele>
        <time>2017-09-23T14:47:41Z</time>
      </trkpt>
      <trkpt lat="47.32843" lon="4.98832">
        <ele>247</ele>
        <time>2017-09-23T14:47:52Z</time>
      </trkpt>
      <trkpt lat="47.32848" lon="4.98823">
        <ele>247.2</ele>
        <time>2017-09-23T14:48:03Z</time>
      </trkpt>
      <trkpt lat="47.32855" lon="4.98815">
        <ele>247.1</ele>
        <time>2017-09-23T14:48:14Z</time>
      </trkpt>
      <trkpt lat="47.3286" lon="4.98812">
        <ele>247</ele>
        <time>2017-09-23T14:48:25Z</time>
      </trkpt>
      <trkpt lat="47.32868" lon="4.98802">
        <ele>246.7</ele>
        <time>2017-09-23T14:48:36Z</time>
      </trkpt>
      <trkpt lat="47.32875" lon="4.98797">
        <ele>246.5</ele>
        <time>2017-09-23T14:48:47Z</time>
      </trkpt>
      <trkpt lat="47.32887" lon="4.98787">
        <ele>246.8</ele>
        <time>2017-09-23T14:48:58Z</time>
      </trkpt>
      <trkpt lat="47.32902" lon="4.98777">
        <ele>247</ele>
        <time>2017-09-23T14:49:09Z</time>
      </trkpt>
      <trkpt lat="47.32913" lon="4.98765">
        <ele>246.9</ele>
        <time>2017-09-23T14:49:20Z</time>
      </trkpt>
      <trkpt lat="47.32923" lon="4.98752">
        <ele>247</ele>
        <time>2017-09-23T14:49:31Z</time>
      </trkpt>
      <trkpt lat="47.32928" lon="4.98747">
        <ele>247</ele>
        <time>2017-09-23T14:49:42Z</time>
      </trkpt>
      <trkpt lat="47.32937" lon="4.98743">
        <ele>247</ele>
        <time>2017-09-23T14:49:53Z</time>
      </trkpt>
      <trkpt lat="47.3294" lon="4.98743">
        <ele>247</ele>
        <time>2017-09-23T14:50:04Z</time>
      </trkpt>
      <trkpt lat="47.32947" lon="4.98742">
        <ele>247.1</ele>
        <time>2017-09-23T14:50:15Z</time>
      </trkpt>
      <trkpt lat="47.32953" lon="4.98738">
        <ele>247.2</ele>
        <time>2017-09-23T14:50:26Z</time>
      </trkpt>
      <trkpt lat="47.32962" lon="4.98742">
        <ele>247.4</ele>
        <time>2017-09-23T14:50:37Z</time>
      </trkpt>
      <trkpt lat="47.32968" lon="4.98738">
        <ele>247.5</ele>
        <time>2017-09-23T14:50:48Z</time>
      </trkpt>
      <trkpt lat="47.32973" lon="4.98735">
        <ele>247.5</ele>
        <time>2017-09-23T14:50:59Z</time>
      </trkpt>
      <trkpt lat="47.3298" lon="4.98738">
        <ele>247.6</ele>
        <time>2017-09-23T14:51:10Z</time>
      </trkpt>
      <trkpt lat="47.32985" lon="4.9874">
        <ele>247.6</ele>
        <time>2017-09-23T14:51:21Z</time>
      </trkpt>
      <trkpt lat="47.32993" lon="4.98742">
        <ele>247.7</ele>
        <time>2017-09-23T14:51:32Z</time>
      </trkpt>
      <trkpt lat="47.33008" lon="4.9875">
        <ele>248.3</ele>
        <time>2017-09-23T14:51:43Z</time>
      </trkpt>
      <trkpt lat="47.33015" lon="4.98753">
        <ele>248.6</ele>
        <time>2017-09-23T14:51:54Z</time>
      </trkpt>
      <trkpt lat="47.33025" lon="4.98763">
        <ele>249.3</ele>
        <time>2017-09-23T14:52:05Z</time>
      </trkpt>
      <trkpt lat="47.33028" lon="4.98763">
        <ele>249.5</ele>
        <time>2017-09-23T14:52:16Z</time>
      </trkpt>
      <trkpt lat="47.33032" lon="4.98765">
        <ele>249.5</ele>
        <time>2017-09-23T14:52:27Z</time>
      </trkpt>
      <trkpt lat="47.33033" lon="4.98765">
        <ele>249.5</ele>
        <time>2017-09-23T14:52:38Z</time>
      </trkpt>
      <trkpt lat="47.33033" lon="4.98768">
        <ele>249.7</ele>
        <time>2017-09-23T14:52:49Z</time>
      </trkpt>
      <trkpt lat="47.33048" lon="4.98783">
        <ele>250.1</ele>
        <time>2017-09-23T14:53:00Z</time>
      </trkpt>
      <trkpt lat="47.33048" lon="4.98788">
        <ele>250.3</ele>
        <time>2017-09-23T14:53:11Z</time>
      </trkpt>
      <trkpt lat="47.33058" lon="4.988">
        <ele>250.8</ele>
        <time>2017-09-23T14:53:22Z</time>
      </trkpt>
      <trkpt lat="47.33062" lon="4.98808">
        <ele>251</ele>
        <time>2017-09-23T14:53:33Z</time>
      </trkpt>
      <trkpt lat="47.33072" lon="4.98818">
        <ele>251</ele>
        <time>2017-09-23T14:53:44Z</time>
      </trkpt>
      <trkpt lat="47.3308" lon="4.98828">
        <ele>251</ele>
        <time>2017-09-23T14:53:55Z</time>
      </trkpt>
      <trkpt lat="47.33085" lon="4.9885">
        <ele>251.1</ele>
        <time>2017-09-23T14:54:06Z</time>
      </trkpt>
      <trkpt lat="47.33087" lon="4.98857">
        <ele>251.1</ele>
        <time>2017-09-23T14:54:17Z</time>
      </trkpt>
      <trkpt lat="47.3309" lon="4.98867">
        <ele>251.1</ele>
        <time>2017-09-23T14:54:28Z</time>
      </trkpt>
      <trkpt lat="47.3309" lon="4.98875">
        <ele>251</ele>
        <time>2017-09-23T14:54:39Z</time>
      </trkpt>
      <trkpt lat="47.3309" lon="4.98892">
        <ele>250.6</ele>
        <time>2017-09-23T14:54:50Z</time>
      </trkpt>
      <trkpt lat="47.3309" lon="4.98895">
        <ele>250.4</ele>
        <time>2017-09-23T14:55:01Z</time>
      </trkpt>
      <trkpt lat="47.3309" lon="4.98898">
        <ele>250.3</ele>
        <time>2017-09-23T14:55:12Z</time>
      </trkpt>
      <trkpt lat="47.33093" lon="4.9891">
        <ele>249.3</ele>
        <time>2017-09-23T14:55:23Z</time>
      </trkpt>
      <trkpt lat="47.33093" lon="4.98918">
        <ele>248.8</ele>
        <time>2017-09-23T14:55:34Z</time>
      </trkpt>
      <trkpt lat="47.33093" lon="4.98928">
        <ele>247.8</ele>
        <time>2017-09-23T14:55:45Z</time>
      </trkpt>
      <trkpt lat="47.33093" lon="4.9893">
        <ele>247.7</ele>
        <time>2017-09-23T14:55:56Z</time>
      </trkpt>
      <trkpt lat="47.33097" lon="4.9894">
        <ele>246.4</ele>
        <time>2017-09-23T14:56:07Z</time>
      </trkpt>
      <trkpt lat="47.33097" lon="4.98942">
        <ele>246.3</ele>
        <time>2017-09-23T14:56:18Z</time>
      </trkpt>
      <trkpt lat="47.33098" lon="4.9895">
        <ele>245.9</ele>
        <time>2017-09-23T14:56:29Z</time>
      </trkpt>
      <trkpt lat="47.33097" lon="4.9896">
        <ele>246</ele>
        <time>2017-09-23T14:56:40Z</time>
      </trkpt>
      <trkpt lat="47.33095" lon="4.98968">
        <ele>246.2</ele>
        <time>2017-09-23T14:56:51Z</time>
      </trkpt>
      <trkpt lat="47.33093" lon="4.9899">
        <ele>245.9</ele>
        <time>2017-09-23T14:57:02Z</time>
      </trkpt>
      <trkpt lat="47.33092" lon="4.98995">
        <ele>245.8</ele>
        <time>2017-09-23T14:57:13Z</time>
      </trkpt>
      <trkpt lat="47.33092" lon="4.99013">
        <ele>245.5</ele>
        <time>2017-09-23T14:57:24Z</time>
      </trkpt>
      <trkpt lat="47.33092" lon="4.99015">
        <ele>245.5</ele>
        <time>2017-09-23T14:57:46Z</time>
      </trkpt>
      <trkpt lat="47.33092" lon="4.99015">
        <ele>245.5</ele>
        <time>2017-09-23T14:57:46Z</time>
      </trkpt>
      <trkpt lat="47.3309" lon="4.99022">
        <ele>245.4</ele>
        <time>2017-09-23T14:57:57Z</time>
      </trkpt>
      <trkpt lat="47.33087" lon="4.99037">
        <ele>245.1</ele>
        <time>2017-09-23T14:58:08Z</time>
      </trkpt>
      <trkpt lat="47.33082" lon="4.99053">
        <ele>244.9</ele>
        <time>2017-09-23T14:58:19Z</time>
      </trkpt>
      <trkpt lat="47.33078" lon="4.99065">
        <ele>244.6</ele>
        <time>2017-09-23T14:58:30Z</time>
      </trkpt>
      <trkpt lat="47.33077" lon="4.99075">
        <ele>244.5</ele>
        <time>2017-09-23T14:58:41Z</time>
      </trkpt>
      <trkpt lat="47.33077" lon="4.99093">
        <ele>244.6</ele>
        <time>2017-09-23T14:58:52Z</time>
      </trkpt>
      <trkpt lat="47.33077" lon="4.99102">
        <ele>244.7</ele>
        <time>2017-09-23T14:59:03Z</time>
      </trkpt>
      <trkpt lat="47.33077" lon="4.99105">
        <ele>244.7</ele>
        <time>2017-09-23T14:59:14Z</time>
      </trkpt>
      <trkpt lat="47.33077" lon="4.9912">
        <ele>244.8</ele>
        <time>2017-09-23T14:59:25Z</time>
      </trkpt>
      <trkpt lat="47.33075" lon="4.99128">
        <ele>244.9</ele>
        <time>2017-09-23T14:59:36Z</time>
      </trkpt>
      <trkpt lat="47.33077" lon="4.99143">
        <ele>245</ele>
        <time>2017-09-23T14:59:47Z</time>
      </trkpt>
      <trkpt lat="47.33072" lon="4.99165">
        <ele>245</ele>
        <time>2017-09-23T14:59:58Z</time>
      </trkpt>
      <trkpt lat="47.33072" lon="4.99167">
        <ele>245</ele>
        <time>2017-09-23T15:00:09Z</time>
      </trkpt>
      <trkpt lat="47.33072" lon="4.99178">
        <ele>245</ele>
        <time>2017-09-23T15:00:20Z</time>
      </trkpt>
      <trkpt lat="47.3307" lon="4.99187">
        <ele>245</ele>
        <time>2017-09-23T15:00:31Z</time>
      </trkpt>
      <trkpt lat="47.33068" lon="4.99202">
        <ele>245</ele>
        <time>2017-09-23T15:00:42Z</time>
      </trkpt>
      <trkpt lat="47.33065" lon="4.99208">
        <ele>245</ele>
        <time>2017-09-23T15:00:53Z</time>
      </trkpt>
      <trkpt lat="47.33063" lon="4.99212">
        <ele>245</ele>
        <time>2017-09-23T15:01:04Z</time>
      </trkpt>
      <trkpt lat="47.33062" lon="4.99213">
        <ele>245</ele>
        <time>2017-09-23T15:01:15Z</time>
      </trkpt>
      <trkpt lat="47.33062" lon="4.99217">
        <ele>245</ele>
        <time>2017-09-23T15:01:37Z</time>
      </trkpt>
      <trkpt lat="47.33062" lon="4.99217">
        <ele>245</ele>
        <time>2017-09-23T15:01:37Z</time>
      </trkpt>
      <trkpt lat="47.3306" lon="4.9924">
        <ele>245</ele>
        <time>2017-09-23T15:01:48Z</time>
      </trkpt>
      <trkpt lat="47.33062" lon="4.9925">
        <ele>245</ele>
        <time>2017-09-23T15:01:59Z</time>
      </trkpt>
      <trkpt lat="47.33063" lon="4.99258">
        <ele>245</ele>
        <time>2017-09-23T15:02:10Z</time>
      </trkpt>
      <trkpt lat="47.33063" lon="4.99272">
        <ele>245</ele>
        <time>2017-09-23T15:02:32Z</time>
      </trkpt>
      <trkpt lat="47.33063" lon="4.99272">
        <ele>245</ele>
        <time>2017-09-23T15:02:32Z</time>
      </trkpt>
      <trkpt lat="47.33062" lon="4.99275">
        <ele>245</ele>
        <time>2017-09-23T15:02:43Z</time>
      </trkpt>
      <trkpt lat="47.33057" lon="4.99292">
        <ele>245</ele>
        <time>2017-09-23T15:02:54Z</time>
      </trkpt>
      <trkpt lat="47.33057" lon="4.99307">
        <ele>245</ele>
        <time>2017-09-23T15:03:05Z</time>
      </trkpt>
      <trkpt lat="47.33057" lon="4.9932">
        <ele>245</ele>
        <time>2017-09-23T15:03:16Z</time>
      </trkpt>
      <trkpt lat="47.33057" lon="4.99332">
        <ele>245.1</ele>
        <time>2017-09-23T15:03:27Z</time>
      </trkpt>
      <trkpt lat="47.33053" lon="4.99343">
        <ele>244.9</ele>
        <time>2017-09-23T15:03:38Z</time>
      </trkpt>
      <trkpt lat="47.33053" lon="4.99355">
        <ele>244.9</ele>
        <time>2017-09-23T15:03:49Z</time>
      </trkpt>
      <trkpt lat="47.33052" lon="4.99365">
        <ele>245.1</ele>
        <time>2017-09-23T15:04:00Z</time>
      </trkpt>
      <trkpt lat="47.3305" lon="4.99377">
        <ele>245.7</ele>
        <time>2017-09-23T15:04:11Z</time>
      </trkpt>
      <trkpt lat="47.33048" lon="4.9938">
        <ele>245.7</ele>
        <time>2017-09-23T15:04:22Z</time>
      </trkpt>
      <trkpt lat="47.33047" lon="4.99393">
        <ele>246.2</ele>
        <time>2017-09-23T15:04:33Z</time>
      </trkpt>
      <trkpt lat="47.33045" lon="4.99398">
        <ele>246.2</ele>
        <time>2017-09-23T15:04:44Z</time>
      </trkpt>
      <trkpt lat="47.33045" lon="4.99402">
        <ele>246.3</ele>
        <time>2017-09-23T15:04:55Z</time>
      </trkpt>
      <trkpt lat="47.33045" lon="4.99408">
        <ele>246.6</ele>
        <time>2017-09-23T15:05:06Z</time>
      </trkpt>
      <trkpt lat="47.33042" lon="4.9943">
        <ele>246.5</ele>
        <time>2017-09-23T15:05:17Z</time>
      </trkpt>
      <trkpt lat="47.33042" lon="4.99433">
        <ele>246.5</ele>
        <time>2017-09-23T15:05:28Z</time>
      </trkpt>
      <trkpt lat="47.33042" lon="4.99445">
        <ele>246.5</ele>
        <time>2017-09-23T15:05:39Z</time>
      </trkpt>
      <trkpt lat="47.3304" lon="4.99448">
        <ele>246.3</ele>
        <time>2017-09-23T15:05:50Z</time>
      </trkpt>
      <trkpt lat="47.33037" lon="4.99467">
        <ele>246</ele>
        <time>2017-09-23T15:06:01Z</time>
      </trkpt>
      <trkpt lat="47.33032" lon="4.99483">
        <ele>245.4</ele>
        <time>2017-09-23T15:06:12Z</time>
      </trkpt>
      <trkpt lat="47.3303" lon="4.99488">
        <ele>245.2</ele>
        <time>2017-09-23T15:06:23Z</time>
      </trkpt>
      <trkpt lat="47.33027" lon="4.99497">
        <ele>245</ele>
        <time>2017-09-23T15:06:34Z</time>
      </trkpt>
      <trkpt lat="47.33025" lon="4.99507">
        <ele>245.4</ele>
        <time>2017-09-23T15:06:45Z</time>
      </trkpt>
      <trkpt lat="47.33023" lon="4.99512">
        <ele>245.6</ele>
        <time>2017-09-23T15:06:56Z</time>
      </trkpt>
      <trkpt lat="47.33022" lon="4.9952">
        <ele>246.1</ele>
        <time>2017-09-23T15:07:07Z</time>
      </trkpt>
      <trkpt lat="47.33018" lon="4.99547">
        <ele>245.9</ele>
        <time>2017-09-23T15:07:18Z</time>
      </trkpt>
      <trkpt lat="47.33015" lon="4.99558">
        <ele>245.6</ele>
        <time>2017-09-23T15:07:29Z</time>
      </trkpt>
      <trkpt lat="47.33015" lon="4.99563">
        <ele>245.7</ele>
        <time>2017-09-23T15:07:40Z</time>
      </trkpt>
      <trkpt lat="47.33015" lon="4.99577">
        <ele>246</ele>
        <time>2017-09-23T15:07:51Z</time>
      </trkpt>
      <trkpt lat="47.33013" lon="4.996">
        <ele>246.8</ele>
        <time>2017-09-23T15:08:02Z</time>
      </trkpt>
      <trkpt lat="47.33005" lon="4.99662">
        <ele>246.9</ele>
        <time>2017-09-23T15:08:13Z</time>
      </trkpt>
      <trkpt lat="47.32997" lon="4.99702">
        <ele>244.9</ele>
        <time>2017-09-23T15:08:24Z</time>
      </trkpt>
      <trkpt lat="47.32992" lon="4.99738">
        <ele>245</ele>
        <time>2017-09-23T15:08:35Z</time>
      </trkpt>
      <trkpt lat="47.32988" lon="4.99753">
        <ele>245.1</ele>
        <time>2017-09-23T15:08:46Z</time>
      </trkpt>
      <trkpt lat="47.32988" lon="4.99757">
        <ele>245.3</ele>
        <time>2017-09-23T15:08:57Z</time>
      </trkpt>
      <trkpt lat="47.32988" lon="4.9978">
        <ele>246.1</ele>
        <time>2017-09-23T15:09:08Z</time>
      </trkpt>
      <trkpt lat="47.32985" lon="4.99795">
        <ele>245.6</ele>
        <time>2017-09-23T15:09:19Z</time>
      </trkpt>
      <trkpt lat="47.32983" lon="4.99808">
        <ele>245.4</ele>
        <time>2017-09-23T15:09:30Z</time>
      </trkpt>
      <trkpt lat="47.3298" lon="4.99822">
        <ele>245.4</ele>
        <time>2017-09-23T15:09:41Z</time>
      </trkpt>
      <trkpt lat="47.32977" lon="4.99842">
        <ele>245.3</ele>
        <time>2017-09-23T15:09:52Z</time>
      </trkpt>
      <trkpt lat="47.32973" lon="4.9986">
        <ele>245.1</ele>
        <time>2017-09-23T15:10:03Z</time>
      </trkpt>
      <trkpt lat="47.32972" lon="4.99873">
        <ele>245</ele>
        <time>2017-09-23T15:10:14Z</time>
      </trkpt>
      <trkpt lat="47.32967" lon="4.99892">
        <ele>244.4</ele>
        <time>2017-09-23T15:10:25Z</time>
      </trkpt>
      <trkpt lat="47.32963" lon="4.99913">
        <ele>244.3</ele>
        <time>2017-09-23T15:10:36Z</time>
      </trkpt>
      <trkpt lat="47.32957" lon="4.99933">
        <ele>244.2</ele>
        <time>2017-09-23T15:10:47Z</time>
      </trkpt>
      <trkpt lat="47.32953" lon="4.99947">
        <ele>244.3</ele>
        <time>2017-09-23T15:10:58Z</time>
      </trkpt>
      <trkpt lat="47.32945" lon="4.99962">
        <ele>244</ele>
        <time>2017-09-23T15:11:09Z</time>
      </trkpt>
      <trkpt lat="47.32938" lon="4.99972">
        <ele>243.6</ele>
        <time>2017-09-23T15:11:20Z</time>
      </trkpt>
      <trkpt lat="47.3293" lon="4.99987">
        <ele>243.2</ele>
        <time>2017-09-23T15:11:31Z</time>
      </trkpt>
      <trkpt lat="47.32923" lon="5.00002">
        <ele>243.3</ele>
        <time>2017-09-23T15:11:42Z</time>
      </trkpt>
      <trkpt lat="47.3292" lon="5.0002">
        <ele>243.8</ele>
        <time>2017-09-23T15:11:53Z</time>
      </trkpt>
      <trkpt lat="47.32917" lon="5.0003">
        <ele>244</ele>
        <time>2017-09-23T15:12:04Z</time>
      </trkpt>
      <trkpt lat="47.32913" lon="5.00042">
        <ele>243.8</ele>
        <time>2017-09-23T15:12:15Z</time>
      </trkpt>
      <trkpt lat="47.32912" lon="5.00048">
        <ele>243.6</ele>
        <time>2017-09-23T15:12:26Z</time>
      </trkpt>
      <trkpt lat="47.32905" lon="5.0006">
        <ele>243.2</ele>
        <time>2017-09-23T15:12:37Z</time>
      </trkpt>
      <trkpt lat="47.329" lon="5.00067">
        <ele>243</ele>
        <time>2017-09-23T15:12:48Z</time>
      </trkpt>
      <trkpt lat="47.32897" lon="5.00075">
        <ele>243.1</ele>
        <time>2017-09-23T15:12:59Z</time>
      </trkpt>
      <trkpt lat="47.32892" lon="5.00082">
        <ele>243</ele>
        <time>2017-09-23T15:13:10Z</time>
      </trkpt>
      <trkpt lat="47.32885" lon="5.00095">
        <ele>243.2</ele>
        <time>2017-09-23T15:13:21Z</time>
      </trkpt>
      <trkpt lat="47.3288" lon="5.00105">
        <ele>243.2</ele>
        <time>2017-09-23T15:13:32Z</time>
      </trkpt>
      <trkpt lat="47.32872" lon="5.00118">
        <ele>242.9</ele>
        <time>2017-09-23T15:13:43Z</time>
      </trkpt>
      <trkpt lat="47.32865" lon="5.0013">
        <ele>242.9</ele>
        <time>2017-09-23T15:13:54Z</time>
      </trkpt>
      <trkpt lat="47.32858" lon="5.00145">
        <ele>243.1</ele>
        <time>2017-09-23T15:14:05Z</time>
      </trkpt>
      <trkpt lat="47.32852" lon="5.00157">
        <ele>243.1</ele>
        <time>2017-09-23T15:14:16Z</time>
      </trkpt>
      <trkpt lat="47.32847" lon="5.00167">
        <ele>243</ele>
        <time>2017-09-23T15:14:27Z</time>
      </trkpt>
      <trkpt lat="47.32845" lon="5.0017">
        <ele>242.9</ele>
        <time>2017-09-23T15:14:38Z</time>
      </trkpt>
      <trkpt lat="47.32842" lon="5.0018">
        <ele>242.9</ele>
        <time>2017-09-23T15:14:49Z</time>
      </trkpt>
      <trkpt lat="47.32835" lon="5.00193">
        <ele>243</ele>
        <time>2017-09-23T15:15:00Z</time>
      </trkpt>
      <trkpt lat="47.32827" lon="5.00207">
        <ele>243.1</ele>
        <time>2017-09-23T15:15:11Z</time>
      </trkpt>
      <trkpt lat="47.3282" lon="5.00213">
        <ele>242.9</ele>
        <time>2017-09-23T15:15:33Z</time>
      </trkpt>
      <trkpt lat="47.3282" lon="5.00213">
        <ele>242.9</ele>
        <time>2017-09-23T15:15:33Z</time>
      </trkpt>
      <trkpt lat="47.32817" lon="5.0022">
        <ele>242.8</ele>
        <time>2017-09-23T15:15:44Z</time>
      </trkpt>
      <trkpt lat="47.32812" lon="5.00227">
        <ele>242.4</ele>
        <time>2017-09-23T15:15:55Z</time>
      </trkpt>
      <trkpt lat="47.32812" lon="5.00237">
        <ele>242.4</ele>
        <time>2017-09-23T15:16:06Z</time>
      </trkpt>
      <trkpt lat="47.32808" lon="5.00255">
        <ele>242.4</ele>
        <time>2017-09-23T15:16:17Z</time>
      </trkpt>
      <trkpt lat="47.32805" lon="5.00267">
        <ele>242.6</ele>
        <time>2017-09-23T15:16:28Z</time>
      </trkpt>
      <trkpt lat="47.32802" lon="5.00272">
        <ele>242.7</ele>
        <time>2017-09-23T15:16:39Z</time>
      </trkpt>
      <trkpt lat="47.32798" lon="5.00285">
        <ele>242.9</ele>
        <time>2017-09-23T15:16:50Z</time>
      </trkpt>
      <trkpt lat="47.32792" lon="5.00293">
        <ele>242.8</ele>
        <time>2017-09-23T15:17:01Z</time>
      </trkpt>
      <trkpt lat="47.32787" lon="5.00305">
        <ele>242.6</ele>
        <time>2017-09-23T15:17:12Z</time>
      </trkpt>
      <trkpt lat="47.32783" lon="5.00318">
        <ele>242.4</ele>
        <time>2017-09-23T15:17:23Z</time>
      </trkpt>
      <trkpt lat="47.3278" lon="5.00327">
        <ele>242.2</ele>
        <time>2017-09-23T15:17:34Z</time>
      </trkpt>
      <trkpt lat="47.32772" lon="5.00338">
        <ele>242.1</ele>
        <time>2017-09-23T15:17:45Z</time>
      </trkpt>
      <trkpt lat="47.32768" lon="5.00347">
        <ele>242.3</ele>
        <time>2017-09-23T15:17:56Z</time>
      </trkpt>
      <trkpt lat="47.32765" lon="5.00357">
        <ele>242.5</ele>
        <time>2017-09-23T15:18:07Z</time>
      </trkpt>
      <trkpt lat="47.32758" lon="5.00368">
        <ele>242.4</ele>
        <time>2017-09-23T15:18:18Z</time>
      </trkpt>
      <trkpt lat="47.32752" lon="5.00377">
        <ele>242.1</ele>
        <time>2017-09-23T15:18:29Z</time>
      </trkpt>
      <trkpt lat="47.32743" lon="5.00385">
        <ele>242</ele>
        <time>2017-09-23T15:18:40Z</time>
      </trkpt>
      <trkpt lat="47.32737" lon="5.00393">
        <ele>242.1</ele>
        <time>2017-09-23T15:18:51Z</time>
      </trkpt>
      <trkpt lat="47.32728" lon="5.00393">
        <ele>242</ele>
        <time>2017-09-23T15:19:13Z</time>
      </trkpt>
      <trkpt lat="47.32728" lon="5.00393">
        <ele>242</ele>
        <time>2017-09-23T15:19:13Z</time>
      </trkpt>
      <trkpt lat="47.32722" lon="5.0039">
        <ele>242</ele>
        <time>2017-09-23T15:19:24Z</time>
      </trkpt>
      <trkpt lat="47.32713" lon="5.004">
        <ele>242</ele>
        <time>2017-09-23T15:19:35Z</time>
      </trkpt>
      <trkpt lat="47.3271" lon="5.00412">
        <ele>242</ele>
        <time>2017-09-23T15:19:46Z</time>
      </trkpt>
      <trkpt lat="47.32703" lon="5.00422">
        <ele>242.1</ele>
        <time>2017-09-23T15:19:57Z</time>
      </trkpt>
      <trkpt lat="47.32702" lon="5.00435">
        <ele>242.2</ele>
        <time>2017-09-23T15:20:08Z</time>
      </trkpt>
      <trkpt lat="47.327" lon="5.00437">
        <ele>242.1</ele>
        <time>2017-09-23T15:20:19Z</time>
      </trkpt>
      <trkpt lat="47.32698" lon="5.00443">
        <ele>242.1</ele>
        <time>2017-09-23T15:20:30Z</time>
      </trkpt>
      <trkpt lat="47.32697" lon="5.00462">
        <ele>243.3</ele>
        <time>2017-09-23T15:20:41Z</time>
      </trkpt>
      <trkpt lat="47.32693" lon="5.00487">
        <ele>244.5</ele>
        <time>2017-09-23T15:20:52Z</time>
      </trkpt>
      <trkpt lat="47.3269" lon="5.00508">
        <ele>244.5</ele>
        <time>2017-09-23T15:21:03Z</time>
      </trkpt>
      <trkpt lat="47.32688" lon="5.0052">
        <ele>244.1</ele>
        <time>2017-09-23T15:21:14Z</time>
      </trkpt>
      <trkpt lat="47.32687" lon="5.00527">
        <ele>243.8</ele>
        <time>2017-09-23T15:21:25Z</time>
      </trkpt>
      <trkpt lat="47.32685" lon="5.00537">
        <ele>243.4</ele>
        <time>2017-09-23T15:21:36Z</time>
      </trkpt>
      <trkpt lat="47.32688" lon="5.00557">
        <ele>243</ele>
        <time>2017-09-23T15:21:47Z</time>
      </trkpt>
      <trkpt lat="47.32687" lon="5.00568">
        <ele>243.3</ele>
        <time>2017-09-23T15:21:58Z</time>
      </trkpt>
      <trkpt lat="47.32683" lon="5.0058">
        <ele>243.5</ele>
        <time>2017-09-23T15:22:09Z</time>
      </trkpt>
      <trkpt lat="47.3268" lon="5.00592">
        <ele>243.5</ele>
        <time>2017-09-23T15:22:20Z</time>
      </trkpt>
      <trkpt lat="47.32675" lon="5.00603">
        <ele>243.3</ele>
        <time>2017-09-23T15:22:31Z</time>
      </trkpt>
      <trkpt lat="47.3267" lon="5.00607">
        <ele>243.1</ele>
        <time>2017-09-23T15:22:42Z</time>
      </trkpt>
      <trkpt lat="47.32665" lon="5.00615">
        <ele>243.1</ele>
        <time>2017-09-23T15:22:53Z</time>
      </trkpt>
      <trkpt lat="47.32658" lon="5.00623">
        <ele>243.4</ele>
        <time>2017-09-23T15:23:04Z</time>
      </trkpt>
      <trkpt lat="47.32652" lon="5.00628">
        <ele>243.6</ele>
        <time>2017-09-23T15:23:15Z</time>
      </trkpt>
      <trkpt lat="47.32645" lon="5.00642">
        <ele>244</ele>
        <time>2017-09-23T15:23:26Z</time>
      </trkpt>
      <trkpt lat="47.32635" lon="5.0065">
        <ele>243.9</ele>
        <time>2017-09-23T15:23:37Z</time>
      </trkpt>
      <trkpt lat="47.32627" lon="5.00657">
        <ele>243.8</ele>
        <time>2017-09-23T15:23:48Z</time>
      </trkpt>
      <trkpt lat="47.32625" lon="5.00662">
        <ele>243.9</ele>
        <time>2017-09-23T15:23:59Z</time>
      </trkpt>
      <trkpt lat="47.32623" lon="5.00663">
        <ele>243.9</ele>
        <time>2017-09-23T15:24:10Z</time>
      </trkpt>
      <trkpt lat="47.32617" lon="5.0067">
        <ele>244</ele>
        <time>2017-09-23T15:24:21Z</time>
      </trkpt>
      <trkpt lat="47.32608" lon="5.00675">
        <ele>244</ele>
        <time>2017-09-23T15:24:32Z</time>
      </trkpt>
      <trkpt lat="47.32598" lon="5.0068">
        <ele>244</ele>
        <time>2017-09-23T15:24:43Z</time>
      </trkpt>
      <trkpt lat="47.32593" lon="5.00685">
        <ele>244</ele>
        <time>2017-09-23T15:24:54Z</time>
      </trkpt>
      <trkpt lat="47.32585" lon="5.00688">
        <ele>244</ele>
        <time>2017-09-23T15:25:05Z</time>
      </trkpt>
      <trkpt lat="47.3258" lon="5.00688">
        <ele>244</ele>
        <time>2017-09-23T15:25:16Z</time>
      </trkpt>
      <trkpt lat="47.32573" lon="5.00695">
        <ele>244</ele>
        <time>2017-09-23T15:25:27Z</time>
      </trkpt>
      <trkpt lat="47.32565" lon="5.007">
        <ele>244</ele>
        <time>2017-09-23T15:25:38Z</time>
      </trkpt>
      <trkpt lat="47.32555" lon="5.00708">
        <ele>244</ele>
        <time>2017-09-23T15:25:49Z</time>
      </trkpt>
      <trkpt lat="47.3255" lon="5.0071">
        <ele>243.9</ele>
        <time>2017-09-23T15:26:00Z</time>
      </trkpt>
      <trkpt lat="47.32547" lon="5.00712">
        <ele>243.9</ele>
        <time>2017-09-23T15:26:11Z</time>
      </trkpt>
      <trkpt lat="47.32547" lon="5.00713">
        <ele>243.9</ele>
        <time>2017-09-23T15:26:22Z</time>
      </trkpt>
      <trkpt lat="47.32542" lon="5.0072">
        <ele>244</ele>
        <time>2017-09-23T15:26:33Z</time>
      </trkpt>
      <trkpt lat="47.32537" lon="5.00728">
        <ele>244</ele>
        <time>2017-09-23T15:26:44Z</time>
      </trkpt>
      <trkpt lat="47.32538" lon="5.00738">
        <ele>244</ele>
        <time>2017-09-23T15:26:55Z</time>
      </trkpt>
      <trkpt lat="47.32532" lon="5.00752">
        <ele>243.9</ele>
        <time>2017-09-23T15:27:06Z</time>
      </trkpt>
      <trkpt lat="47.32523" lon="5.0076">
        <ele>243.7</ele>
        <time>2017-09-23T15:27:17Z</time>
      </trkpt>
      <trkpt lat="47.32513" lon="5.00767">
        <ele>243.7</ele>
        <time>2017-09-23T15:27:28Z</time>
      </trkpt>
      <trkpt lat="47.32505" lon="5.00772">
        <ele>243.9</ele>
        <time>2017-09-23T15:27:39Z</time>
      </trkpt>
      <trkpt lat="47.32493" lon="5.00777">
        <ele>244</ele>
        <time>2017-09-23T15:27:50Z</time>
      </trkpt>
      <trkpt lat="47.32488" lon="5.00775">
        <ele>244</ele>
        <time>2017-09-23T15:28:01Z</time>
      </trkpt>
      <trkpt lat="47.32483" lon="5.00777">
        <ele>244</ele>
        <time>2017-09-23T15:28:12Z</time>
      </trkpt>
      <trkpt lat="47.32478" lon="5.00778">
        <ele>244</ele>
        <time>2017-09-23T15:28:23Z</time>
      </trkpt>
      <trkpt lat="47.3247" lon="5.00783">
        <ele>244</ele>
        <time>2017-09-23T15:28:34Z</time>
      </trkpt>
      <trkpt lat="47.32463" lon="5.00788">
        <ele>244</ele>
        <time>2017-09-23T15:28:45Z</time>
      </trkpt>
      <trkpt lat="47.32458" lon="5.00792">
        <ele>244</ele>
        <time>2017-09-23T15:28:56Z</time>
      </trkpt>
      <trkpt lat="47.3245" lon="5.00795">
        <ele>244</ele>
        <time>2017-09-23T15:29:07Z</time>
      </trkpt>
      <trkpt lat="47.32442" lon="5.00797">
        <ele>244</ele>
        <time>2017-09-23T15:29:18Z</time>
      </trkpt>
      <trkpt lat="47.32433" lon="5.008">
        <ele>243.9</ele>
        <time>2017-09-23T15:29:29Z</time>
      </trkpt>
      <trkpt lat="47.3243" lon="5.00797">
        <ele>243.8</ele>
        <time>2017-09-23T15:29:40Z</time>
      </trkpt>
      <trkpt lat="47.32432" lon="5.00798">
        <ele>243.9</ele>
        <time>2017-09-23T15:30:13Z</time>
      </trkpt>
      <trkpt lat="47.32432" lon="5.00798">
        <ele>243.9</ele>
        <time>2017-09-23T15:30:13Z</time>
      </trkpt>
      <trkpt lat="47.32432" lon="5.00798">
        <ele>243.9</ele>
        <time>2017-09-23T15:30:13Z</time>
      </trkpt>
      <trkpt lat="47.32418" lon="5.00803">
        <ele>243.9</ele>
        <time>2017-09-23T15:30:24Z</time>
      </trkpt>
    </trkseg>
  </trk>
</gpx>